Latest Weather Forecast - Monday 20th June 2022(12 Noon)

Forecast Period: 

12:00 noon 20th June, 2022 to 6:00 pm 20th  June, 2022

Synopsis:
A tropical wave will begin to affect the islands
Forecast:
Partly cloudy and slightly hazy at first, becoming increasingly cloudy with light to moderate showers and a slight chance of isolated thunderstorms

Weather Advisory/Warning:

None

Winds:

ENE - E at 15 to 30 km/h (9 – 19 mph)
Sea Conditions:
Moderate in open water with swells from (1.5 m to 2.3 m)

Marine Advisory:

Small craft operators and sea bathers should exercise caution
Upcoming Tides:
High: **** 10:51 pm
Low: **** 06:04 pm

Aviation WX

[Source: ADDS]
METAR
TVSA 011600Z 09008KT 030V150 9999 5000N VCSH SCT014CB 28/25 Q1012 TEMPO SHRA =
TVSA 011100Z 0112/0212 06014KT 9999 BKN016 BKN040 TEMPO 0112/0118 10025G35KT 2000 TSRA BKN006CB OVC010 PROB30 TEMPO 0118/0124 4000 RA BKN010 OVC032
TAF
TVSA 011100Z 0112/0212 06014KT 9999 BKN016 BKN040 TEMPO 0112/0118 10025G35KT 2000 TSRA BKN006CB OVC010 PROB30 TEMPO 0118/0124 4000 RA BKN010 OVC032 =
SR / SS: 09:41 / 22:35 UTC (Sunrise Sunset 2022-07-01)